createdAt,value
2022-10-29T00:05:00.851Z,15.31
2022-10-29T00:10:06.891Z,15.23
2022-10-29T00:15:11.493Z,15.18
2022-10-29T00:20:15.223Z,15.11
2022-10-29T00:25:20.254Z,15.04
2022-10-29T00:30:23.922Z,14.95
2022-10-29T00:35:27.604Z,14.87
2022-10-29T00:40:37.587Z,14.83
2022-10-29T00:45:45.848Z,14.83
2022-10-29T00:50:50.207Z,14.79
2022-10-29T00:55:55.240Z,14.75
2022-10-29T01:00:59.319Z,14.70
2022-10-29T01:06:04.350Z,14.66
2022-10-29T01:11:21.503Z,14.62
2022-10-29T01:16:31.944Z,14.58
2022-10-29T01:21:42.671Z,14.55
2022-10-29T01:27:10.946Z,14.48
2022-10-29T01:32:17.193Z,14.42
2022-10-29T01:37:27.895Z,14.33
2022-10-29T01:42:38.729Z,14.32
2022-10-29T01:47:46.749Z,14.26
2022-10-29T01:52:52.019Z,14.20
2022-10-29T01:57:56.097Z,14.16
2022-10-29T02:03:16.446Z,14.13
2022-10-29T02:08:28.409Z,14.11
2022-10-29T02:13:35.639Z,14.08
2022-10-29T02:18:45.504Z,14.07
2022-10-29T02:23:49.252Z,14.02
2022-10-29T02:28:52.984Z,13.97
2022-10-29T02:33:58.010Z,13.94
2022-10-29T02:39:01.704Z,13.93
2022-10-29T02:44:05.718Z,13.96
2022-10-29T02:49:10.690Z,13.99
2022-10-29T02:54:14.441Z,14.05
2022-10-29T02:59:18.204Z,14.06
2022-10-29T03:04:23.240Z,14.06
2022-10-29T03:09:26.881Z,14.02
2022-10-29T03:14:30.582Z,14.01
2022-10-29T03:19:35.600Z,13.98
2022-10-29T03:24:39.223Z,13.96
2022-10-29T03:29:42.869Z,14.01
2022-10-29T03:34:47.877Z,14.05
2022-10-29T03:39:51.568Z,14.09
2022-10-29T03:44:55.255Z,14.16
2022-10-29T03:50:00.277Z,14.23
2022-10-29T03:55:04.424Z,14.31
2022-10-29T04:00:09.036Z,14.30
2022-10-29T04:05:17.592Z,14.29
2022-10-29T04:10:21.411Z,14.31
2022-10-29T04:15:25.151Z,14.27
2022-10-29T04:21:22.461Z,14.29
2022-10-29T04:31:21.319Z,14.25
2022-10-29T04:36:26.371Z,14.21
2022-10-29T04:41:29.994Z,14.16
2022-10-29T04:46:33.653Z,14.11
2022-10-29T04:51:38.645Z,14.08
2022-10-29T04:56:42.361Z,14.06
2022-10-29T05:01:46.039Z,14.04
2022-10-29T05:06:51.066Z,14.00
2022-10-29T05:11:54.770Z,14.03
2022-10-29T05:16:58.515Z,14.04
2022-10-29T05:22:03.634Z,14.04
2022-10-29T05:27:07.932Z,14.05
2022-10-29T05:32:11.551Z,14.08
2022-10-29T05:37:16.606Z,14.09
2022-10-29T05:42:20.263Z,14.10
2022-10-29T05:47:24.066Z,14.12
2022-10-29T05:52:29.176Z,14.13
2022-10-29T05:57:33.046Z,14.15
2022-10-29T06:02:36.868Z,14.17
2022-10-29T06:07:43.374Z,14.21
2022-10-29T06:12:47.271Z,14.23
2022-10-29T06:17:51.472Z,14.23
2022-10-29T06:23:00.074Z,14.26
2022-10-29T06:28:06.069Z,14.30
2022-10-29T06:33:09.755Z,14.26
2022-10-29T06:38:15.587Z,14.25
2022-10-29T06:43:19.243Z,14.23
2022-10-29T06:48:23.121Z,14.26
2022-10-29T06:53:28.408Z,14.29
2022-10-29T06:58:32.104Z,14.28
2022-10-29T07:03:35.916Z,14.28
2022-10-29T07:08:41.140Z,14.32
2022-10-29T07:13:44.981Z,14.32
2022-10-29T07:18:48.670Z,14.36
2022-10-29T07:23:53.670Z,14.40
2022-10-29T07:28:58.418Z,14.42
2022-10-29T07:34:02.089Z,14.47
2022-10-29T07:39:07.438Z,14.56
2022-10-29T07:44:11.245Z,14.65
2022-10-29T07:49:15.007Z,14.73
2022-10-29T07:54:20.092Z,14.80
2022-10-29T07:59:23.775Z,14.90
2022-10-29T08:04:27.444Z,15.04
2022-10-29T08:09:32.447Z,15.17
2022-10-29T08:14:36.319Z,15.26
2022-10-29T08:19:40.119Z,15.36
2022-10-29T08:24:45.081Z,15.48
2022-10-29T08:29:48.861Z,15.71
2022-10-29T08:34:52.553Z,15.85
2022-10-29T08:39:57.599Z,15.87
2022-10-29T08:45:24.725Z,15.95
2022-10-29T08:50:31.402Z,15.98
2022-10-29T08:55:38.326Z,15.97
2022-10-29T09:00:44.157Z,16.12
2022-10-29T09:05:59.030Z,16.23
2022-10-29T09:11:17.578Z,16.35
2022-10-29T09:16:43.443Z,16.43
2022-10-29T09:21:56.923Z,16.41
2022-10-29T09:27:10.549Z,16.50
2022-10-29T09:32:21.660Z,16.49
2022-10-29T09:37:37.173Z,16.57
2022-10-29T09:42:45.544Z,16.58
2022-10-29T09:47:57.612Z,16.75
2022-10-29T09:53:01.659Z,16.97
2022-10-29T09:58:07.610Z,17.20
2022-10-29T10:03:17.367Z,17.70
2022-10-29T10:08:21.127Z,18.38
2022-10-29T10:13:29.902Z,18.95
2022-10-29T10:23:48.377Z,19.80
2022-10-29T10:29:05.532Z,20.24
2022-10-29T10:34:15.248Z,20.49
2022-10-29T10:39:27.160Z,20.80
2022-10-29T10:44:32.654Z,21.08
2022-10-29T10:49:38.358Z,21.62
2022-10-29T10:54:47.060Z,22.04
2022-10-29T11:00:03.283Z,22.41
2022-10-29T11:05:15.950Z,23.04
2022-10-29T11:10:21.838Z,24.06
2022-10-29T11:15:35.673Z,24.30
2022-10-29T11:20:41.675Z,24.52
2022-10-29T11:25:52.002Z,24.39
2022-10-29T11:31:05.286Z,24.21
2022-10-29T11:36:17.258Z,24.81
2022-10-29T11:41:27.477Z,26.06
2022-10-29T11:46:42.489Z,26.33
2022-10-29T11:51:57.836Z,27.25
2022-10-29T11:57:06.643Z,27.99
2022-10-29T12:02:27.928Z,27.96
2022-10-29T12:07:45.923Z,29.03
2022-10-29T12:12:53.378Z,29.47
2022-10-29T12:18:11.445Z,29.51
2022-10-29T12:23:27.304Z,29.73
2022-10-29T12:28:39.589Z,30.47
2022-10-29T12:33:51.311Z,31.20
2022-10-29T12:38:58.074Z,30.95
2022-10-29T12:44:10.994Z,31.88
2022-10-29T12:49:22.343Z,32.20
2022-10-29T12:54:37.026Z,32.48
2022-10-29T12:59:41.837Z,32.28
2022-10-29T13:10:50.338Z,32.33
2022-10-29T13:16:01.811Z,32.33
2022-10-29T13:21:05.607Z,31.41
2022-10-29T13:26:10.765Z,30.70
2022-10-29T13:31:51.282Z,29.57
2022-10-29T13:36:54.945Z,28.12
2022-10-29T13:42:00.235Z,27.98
2022-10-29T13:47:06.261Z,27.39
2022-10-29T13:52:15.915Z,26.87
2022-10-29T13:57:26.355Z,26.55
2022-10-29T14:02:39.436Z,26.19
2022-10-29T14:07:51.001Z,25.96
2022-10-29T14:13:01.483Z,25.86
2022-10-29T14:18:18.504Z,25.57
2022-10-29T14:23:22.279Z,25.62
2022-10-29T14:28:30.138Z,25.52
2022-10-29T14:33:35.645Z,25.55
2022-10-29T14:38:42.943Z,25.61
2022-10-29T14:43:57.081Z,25.63
2022-10-29T14:49:14.991Z,25.39
2022-10-29T14:54:23.057Z,25.23
2022-10-29T14:59:31.081Z,24.95
2022-10-29T15:04:35.155Z,24.82
2022-10-29T15:09:38.846Z,24.62
2022-10-29T15:14:50.201Z,24.44
2022-10-29T15:19:56.208Z,24.05
2022-10-29T15:25:02.147Z,23.99
2022-10-29T15:30:08.519Z,23.68
2022-10-29T15:35:12.818Z,23.49
2022-10-29T15:40:17.688Z,23.21
2022-10-29T15:45:25.560Z,23.14
2022-10-29T15:50:33.578Z,22.82
2022-10-29T15:55:38.670Z,22.87
2022-10-29T16:00:44.169Z,22.73
2022-10-29T16:05:50.981Z,22.63
2022-10-29T16:10:55.363Z,22.47
2022-10-29T16:16:00.542Z,22.17
2022-10-29T16:21:06.796Z,22.16
2022-10-29T16:26:11.072Z,22.08
2022-10-29T16:31:20.776Z,21.95
2022-10-29T16:36:24.868Z,21.75
2022-10-29T16:41:28.696Z,21.62
2022-10-29T16:46:33.767Z,21.58
2022-10-29T16:51:37.479Z,21.36
2022-10-29T16:56:41.240Z,21.30
2022-10-29T17:01:48.333Z,21.13
2022-10-29T17:06:52.111Z,21.08
2022-10-29T17:11:55.879Z,21.17
2022-10-29T17:17:01.851Z,21.13
2022-10-29T17:22:05.770Z,21.01
2022-10-29T17:27:09.547Z,20.98
2022-10-29T17:32:14.828Z,20.95
2022-10-29T17:37:18.585Z,20.72
2022-10-29T17:42:22.690Z,20.65
2022-10-29T17:47:27.897Z,20.55
2022-10-29T17:52:31.732Z,20.47
2022-10-29T17:57:35.481Z,20.44
2022-10-29T18:02:40.729Z,20.36
2022-10-29T18:07:44.678Z,20.32
2022-10-29T18:12:48.429Z,20.28
2022-10-29T18:22:57.760Z,20.12
2022-10-29T18:28:01.795Z,20.04
2022-10-29T18:33:06.932Z,19.93
2022-10-29T18:38:10.681Z,19.89
2022-10-29T18:43:14.319Z,19.77
2022-10-29T18:48:19.522Z,19.72
2022-10-29T18:53:23.246Z,19.65
2022-10-29T18:58:26.906Z,19.54
2022-10-29T19:03:31.951Z,19.49
2022-10-29T19:08:36.467Z,19.47
2022-10-29T19:13:40.231Z,19.43
2022-10-29T19:18:45.434Z,19.34
2022-10-29T19:23:49.179Z,19.23
2022-10-29T19:28:52.934Z,19.25
2022-10-29T19:34:00.086Z,19.23
2022-10-29T19:39:04.714Z,19.19
2022-10-29T19:44:08.600Z,19.07
2022-10-29T19:49:13.780Z,19.09
2022-10-29T19:54:17.487Z,18.95
2022-10-29T19:59:21.314Z,19.00
2022-10-29T20:04:26.474Z,18.98
2022-10-29T20:09:30.402Z,18.88
2022-10-29T20:14:35.628Z,18.90
2022-10-29T20:19:40.646Z,18.81
2022-10-29T20:24:44.385Z,18.67
2022-10-29T20:29:48.022Z,18.74
2022-10-29T20:34:53.335Z,18.62
2022-10-29T20:39:57.258Z,18.58
2022-10-29T20:45:00.975Z,18.58
2022-10-29T20:50:06.829Z,18.54
2022-10-29T20:55:10.942Z,18.51
2022-10-29T21:00:15.446Z,18.46
2022-10-29T21:05:20.505Z,18.40
2022-10-29T21:10:24.266Z,18.29
2022-10-29T21:15:28.259Z,18.27
2022-10-29T21:20:33.481Z,18.12
2022-10-29T21:25:37.198Z,18.10
2022-10-29T21:30:41.038Z,18.01
2022-10-29T21:35:50.671Z,17.92
2022-10-29T21:40:54.416Z,17.91
2022-10-29T21:45:58.240Z,17.81
2022-10-29T21:51:05.180Z,17.70
2022-10-29T21:56:11.754Z,17.69
2022-10-29T22:01:17.233Z,17.60
2022-10-29T22:06:25.631Z,17.52
2022-10-29T22:11:29.761Z,17.47
2022-10-29T22:16:33.437Z,17.44
2022-10-29T22:21:38.422Z,17.36
2022-10-29T22:26:42.079Z,17.27
2022-10-29T22:31:45.806Z,17.19
2022-10-29T22:36:52.668Z,17.17
2022-10-29T22:41:56.422Z,17.07
2022-10-29T22:47:00.098Z,16.99
2022-10-29T22:52:05.419Z,16.95
2022-10-29T22:57:09.111Z,16.95
2022-10-29T23:02:12.860Z,16.89
2022-10-29T23:07:18.054Z,16.91
2022-10-29T23:12:21.832Z,16.85
2022-10-29T23:17:25.541Z,16.79
2022-10-29T23:22:30.580Z,16.68
2022-10-29T23:27:34.409Z,16.70
2022-10-29T23:32:38.108Z,16.66
2022-10-29T23:37:43.185Z,16.60
2022-10-29T23:42:47.015Z,16.53
2022-10-29T23:47:50.739Z,16.49
2022-10-29T23:52:56.023Z,16.43
2022-10-29T23:58:00.286Z,16.39
